RJOP(METAR)
12/11 17:00
METAR RJOP 110800Z 33011KT 9999 -RA FEW030 BKN060 OVC070 10/06 Q1021
RMK 1CU030 5SC060 8AS070 A3016=
戻る
トップページへ戻る
IMOC Co,.Ltd.